RYR464 LGKR-LGRP
Flight info
| Callsign | RYR464 |
|---|---|
| Flight time | 1h 11m |
| Altitude | 31000 |
| Route | RIPID UN732 ORTOS UL612 TRL UM601 VANES |
| Aircraft | B738/M-SDE2E3FGHIRWXY/LB1 |
Departure
| Time | 2026-04-27 13:53 |
|---|---|
| Airport | Corfu Ioannis Kapodistrias International Airport (LGKR) |
Arrival
| Time | 2026-04-27 15:05 |
|---|---|
| Airport | Rhodes International Airport "Diagoras" (LGRP) |
| Time | Latitude | Longitude | Altitude | Speed | Heading |
|---|---|---|---|---|---|
| 2026-04-27 13:28 | 39.60553 | 19.91388 | 18 ft | 0 kts | 79° |
| 2026-04-27 13:28 | 39.60554 | 19.91395 | 18 ft | 0 kts | 79° |
| 2026-04-27 13:46 | 39.60554 | 19.91394 | 18 ft | 2 kts | 79° |
| 2026-04-27 13:46 | 39.60551 | 19.91369 | 19 ft | 3 kts | 90° |
| 2026-04-27 13:46 | 39.60553 | 19.91344 | 21 ft | 3 kts | 110° |
| 2026-04-27 13:47 | 39.60563 | 19.91322 | 18 ft | 3 kts | 135° |
| 2026-04-27 13:47 | 39.60576 | 19.91306 | 21 ft | 3 kts | 144° |
| 2026-04-27 13:47 | 39.60593 | 19.91293 | 21 ft | 3 kts | 154° |
| 2026-04-27 13:47 | 39.60612 | 19.91283 | 19 ft | 3 kts | 165° |
| 2026-04-27 13:48 | 39.60631 | 19.91278 | 19 ft | 3 kts | 174° |
| 2026-04-27 13:48 | 39.60652 | 19.91276 | 20 ft | 3 kts | 175° |
| 2026-04-27 13:48 | 39.60666 | 19.91274 | 21 ft | 0 kts | 169° |
| 2026-04-27 13:50 | 39.60653 | 19.91269 | 20 ft | 5 kts | 211° |
| 2026-04-27 13:50 | 39.60584 | 19.91207 | 18 ft | 18 kts | 217° |
| 2026-04-27 13:51 | 39.60589 | 19.91111 | 17 ft | 15 kts | 344° |
| 2026-04-27 13:51 | 39.60697 | 19.91083 | 18 ft | 18 kts | 349° |
| 2026-04-27 13:51 | 39.60845 | 19.91045 | 19 ft | 24 kts | 348° |
| 2026-04-27 13:51 | 39.61007 | 19.91017 | 18 ft | 20 kts | 23° |
| 2026-04-27 13:52 | 39.61091 | 19.91109 | 18 ft | 13 kts | 5° |
| 2026-04-27 13:52 | 39.61180 | 19.91089 | 18 ft | 13 kts | 348° |
| 2026-04-27 13:52 | 39.61225 | 19.91000 | 20 ft | 12 kts | 266° |
| 2026-04-27 13:52 | 39.61157 | 19.90964 | 20 ft | 13 kts | 169° |
| 2026-04-27 13:53 | 39.60396 | 19.91162 | 18 ft | 122 kts | 168° |
| 2026-04-27 13:53 | 39.59394 | 19.91420 | 205 ft | 160 kts | 169° |
| 2026-04-27 13:53 | 39.58268 | 19.91739 | 865 ft | 170 kts | 157° |
| 2026-04-27 13:54 | 39.57484 | 19.92835 | 1577 ft | 171 kts | 103° |
| 2026-04-27 13:54 | 39.57312 | 19.94403 | 2095 ft | 190 kts | 112° |
| 2026-04-27 13:54 | 39.56384 | 19.95700 | 2445 ft | 207 kts | 150° |
| 2026-04-27 13:54 | 39.55127 | 19.96701 | 2889 ft | 219 kts | 147° |
| 2026-04-27 13:55 | 39.53783 | 19.97867 | 3080 ft | 244 kts | 149° |
| 2026-04-27 13:55 | 39.52117 | 19.98424 | 3554 ft | 255 kts | 182° |
| 2026-04-27 13:55 | 39.50340 | 19.98240 | 4434 ft | 256 kts | 185° |
| 2026-04-27 13:55 | 39.48564 | 19.98039 | 5296 ft | 258 kts | 185° |
| 2026-04-27 13:56 | 39.46757 | 19.97839 | 6024 ft | 264 kts | 185° |
| 2026-04-27 13:56 | 39.44898 | 19.97638 | 6751 ft | 271 kts | 185° |
| 2026-04-27 13:56 | 39.43016 | 19.97437 | 7593 ft | 272 kts | 185° |
| 2026-04-27 13:56 | 39.41111 | 19.97294 | 8348 ft | 277 kts | 174° |
| 2026-04-27 13:57 | 39.39269 | 19.98045 | 9066 ft | 281 kts | 151° |
| 2026-04-27 13:57 | 39.37694 | 19.99553 | 9812 ft | 284 kts | 138° |
| 2026-04-27 13:57 | 39.36217 | 20.01301 | 10412 ft | 293 kts | 136° |
| 2026-04-27 13:57 | 39.34699 | 20.03172 | 10579 ft | 317 kts | 136° |
| 2026-04-27 13:58 | 39.33056 | 20.05217 | 10752 ft | 339 kts | 136° |
| 2026-04-27 13:58 | 39.31323 | 20.07375 | 11156 ft | 352 kts | 136° |
| 2026-04-27 13:58 | 39.29544 | 20.09586 | 11750 ft | 358 kts | 136° |
| 2026-04-27 13:58 | 39.27731 | 20.11831 | 12415 ft | 363 kts | 137° |
| 2026-04-27 13:59 | 39.25899 | 20.14093 | 13127 ft | 367 kts | 137° |
| 2026-04-27 13:59 | 39.24042 | 20.16382 | 13839 ft | 371 kts | 137° |
| 2026-04-27 13:59 | 39.22157 | 20.18701 | 14474 ft | 376 kts | 137° |
| 2026-04-27 13:59 | 39.20247 | 20.21047 | 15135 ft | 381 kts | 137° |
| 2026-04-27 14:00 | 39.18320 | 20.23411 | 15807 ft | 385 kts | 137° |
| 2026-04-27 14:00 | 39.16368 | 20.25803 | 16479 ft | 389 kts | 138° |
| 2026-04-27 14:00 | 39.14391 | 20.28224 | 17121 ft | 394 kts | 138° |
| 2026-04-27 14:00 | 39.12416 | 20.30641 | 17764 ft | 398 kts | 138° |
| 2026-04-27 14:01 | 39.10393 | 20.33115 | 18392 ft | 403 kts | 138° |
| 2026-04-27 14:01 | 39.08347 | 20.35614 | 18953 ft | 407 kts | 138° |
| 2026-04-27 14:01 | 39.06284 | 20.38132 | 19525 ft | 410 kts | 138° |
| 2026-04-27 14:01 | 39.04203 | 20.40670 | 20090 ft | 414 kts | 138° |
| 2026-04-27 14:02 | 39.02101 | 20.43231 | 20640 ft | 418 kts | 138° |
| 2026-04-27 14:02 | 38.99974 | 20.45822 | 21186 ft | 421 kts | 138° |
| 2026-04-27 14:02 | 38.97832 | 20.48428 | 21696 ft | 426 kts | 137° |
| 2026-04-27 14:02 | 38.95670 | 20.51055 | 22207 ft | 429 kts | 137° |
| 2026-04-27 14:03 | 38.93490 | 20.53703 | 22722 ft | 433 kts | 137° |
| 2026-04-27 14:03 | 38.91293 | 20.56369 | 23228 ft | 437 kts | 137° |
| 2026-04-27 14:03 | 38.89076 | 20.59056 | 23727 ft | 440 kts | 137° |
| 2026-04-27 14:03 | 38.86840 | 20.61764 | 24160 ft | 442 kts | 137° |
| 2026-04-27 14:04 | 38.84599 | 20.64477 | 24611 ft | 444 kts | 137° |
| 2026-04-27 14:04 | 38.82369 | 20.67172 | 25050 ft | 446 kts | 138° |
| 2026-04-27 14:04 | 38.80105 | 20.69907 | 25476 ft | 449 kts | 138° |
| 2026-04-27 14:04 | 38.77821 | 20.72663 | 25881 ft | 451 kts | 138° |
| 2026-04-27 14:05 | 38.75529 | 20.75427 | 26293 ft | 453 kts | 138° |
| 2026-04-27 14:05 | 38.73223 | 20.78203 | 26699 ft | 455 kts | 138° |
| 2026-04-27 14:05 | 38.70911 | 20.80985 | 27090 ft | 457 kts | 138° |
| 2026-04-27 14:05 | 38.68584 | 20.83782 | 27469 ft | 460 kts | 138° |
| 2026-04-27 14:06 | 38.66246 | 20.86593 | 27836 ft | 462 kts | 137° |
| 2026-04-27 14:06 | 38.64043 | 20.89599 | 28187 ft | 465 kts | 130° |
| 2026-04-27 14:06 | 38.62023 | 20.92852 | 28553 ft | 467 kts | 128° |
| 2026-04-27 14:06 | 38.60039 | 20.96162 | 28891 ft | 470 kts | 128° |
| 2026-04-27 14:07 | 38.58058 | 20.99496 | 29261 ft | 471 kts | 128° |
| 2026-04-27 14:07 | 38.56067 | 21.02831 | 29619 ft | 473 kts | 128° |
| 2026-04-27 14:07 | 38.54053 | 21.06172 | 29943 ft | 475 kts | 128° |
| 2026-04-27 14:07 | 38.52021 | 21.09514 | 30208 ft | 478 kts | 128° |
| 2026-04-27 14:08 | 38.50663 | 21.11735 | 30367 ft | 479 kts | 129° |
| 2026-04-27 14:08 | 38.48604 | 21.15086 | 30690 ft | 480 kts | 129° |
| 2026-04-27 14:08 | 38.46544 | 21.18432 | 31079 ft | 478 kts | 129° |
| 2026-04-27 14:08 | 38.44490 | 21.21759 | 31462 ft | 477 kts | 129° |
| 2026-04-27 14:09 | 38.42435 | 21.25086 | 31797 ft | 477 kts | 129° |
| 2026-04-27 14:09 | 38.40377 | 21.28416 | 32116 ft | 477 kts | 129° |
| 2026-04-27 14:09 | 38.38350 | 21.31693 | 32472 ft | 476 kts | 129° |
| 2026-04-27 14:09 | 38.36299 | 21.35005 | 32824 ft | 475 kts | 129° |
| 2026-04-27 14:10 | 38.34250 | 21.38313 | 33142 ft | 475 kts | 129° |
| 2026-04-27 14:10 | 38.32202 | 21.41613 | 33439 ft | 476 kts | 129° |
| 2026-04-27 14:10 | 38.30148 | 21.44922 | 33766 ft | 475 kts | 129° |
| 2026-04-27 14:10 | 38.28100 | 21.48217 | 34093 ft | 474 kts | 129° |
| 2026-04-27 14:11 | 38.26054 | 21.51507 | 34380 ft | 474 kts | 129° |
| 2026-04-27 14:11 | 38.24007 | 21.54794 | 34612 ft | 474 kts | 129° |
| 2026-04-27 14:11 | 38.21952 | 21.58090 | 34823 ft | 475 kts | 129° |
| 2026-04-27 14:11 | 38.19897 | 21.61383 | 35063 ft | 475 kts | 130° |
| 2026-04-27 14:12 | 38.17842 | 21.64673 | 35323 ft | 475 kts | 130° |
| 2026-04-27 14:12 | 38.15782 | 21.67967 | 35565 ft | 475 kts | 130° |
| 2026-04-27 14:12 | 38.13724 | 21.71256 | 35788 ft | 475 kts | 130° |
| 2026-04-27 14:12 | 38.11663 | 21.74545 | 36017 ft | 476 kts | 130° |
| 2026-04-27 14:13 | 38.09602 | 21.77831 | 36256 ft | 476 kts | 130° |
| 2026-04-27 14:13 | 38.07536 | 21.81121 | 36501 ft | 476 kts | 130° |
| 2026-04-27 14:13 | 38.05499 | 21.84364 | 36712 ft | 476 kts | 130° |
| 2026-04-27 14:13 | 38.03435 | 21.87643 | 36956 ft | 476 kts | 130° |
| 2026-04-27 14:14 | 38.01367 | 21.90928 | 37088 ft | 478 kts | 130° |
| 2026-04-27 14:14 | 37.97199 | 21.97536 | 37074 ft | 479 kts | 130° |
| 2026-04-27 14:15 | 37.93050 | 22.04103 | 37072 ft | 475 kts | 130° |
| 2026-04-27 14:15 | 37.88930 | 22.10611 | 37077 ft | 472 kts | 130° |
| 2026-04-27 14:16 | 37.84857 | 22.17031 | 37093 ft | 470 kts | 130° |
| 2026-04-27 14:16 | 37.80756 | 22.23482 | 37098 ft | 470 kts | 130° |
| 2026-04-27 14:17 | 37.76644 | 22.29935 | 37087 ft | 472 kts | 130° |
| 2026-04-27 14:17 | 37.72517 | 22.36402 | 37098 ft | 474 kts | 130° |
| 2026-04-27 14:18 | 37.68364 | 22.42897 | 37084 ft | 477 kts | 130° |
| 2026-04-27 14:18 | 37.64188 | 22.49415 | 37086 ft | 478 kts | 130° |
| 2026-04-27 14:19 | 37.59991 | 22.55952 | 37081 ft | 480 kts | 130° |
| 2026-04-27 14:19 | 37.55804 | 22.62461 | 37090 ft | 481 kts | 130° |
| 2026-04-27 14:20 | 37.51571 | 22.69028 | 37078 ft | 482 kts | 131° |
| 2026-04-27 14:20 | 37.47949 | 22.74638 | 37091 ft | 482 kts | 131° |
| 2026-04-27 14:21 | 37.43743 | 22.81140 | 37087 ft | 482 kts | 131° |
| 2026-04-27 14:21 | 37.39502 | 22.87683 | 37089 ft | 482 kts | 131° |
| 2026-04-27 14:22 | 37.35253 | 22.94226 | 37091 ft | 482 kts | 131° |
| 2026-04-27 14:22 | 37.30992 | 23.00772 | 37084 ft | 482 kts | 131° |
| 2026-04-27 14:23 | 37.26766 | 23.07254 | 37088 ft | 482 kts | 131° |
| 2026-04-27 14:23 | 37.22509 | 23.13771 | 37088 ft | 482 kts | 131° |
| 2026-04-27 14:24 | 37.18255 | 23.20273 | 37091 ft | 482 kts | 131° |
| 2026-04-27 14:24 | 37.14013 | 23.26776 | 37086 ft | 482 kts | 128° |
| 2026-04-27 14:25 | 37.10756 | 23.34130 | 37087 ft | 484 kts | 111° |
| 2026-04-27 14:25 | 37.08429 | 23.42051 | 37083 ft | 484 kts | 110° |
| 2026-04-27 14:26 | 37.06126 | 23.49931 | 37087 ft | 484 kts | 110° |
| 2026-04-27 14:26 | 37.03752 | 23.57834 | 37083 ft | 485 kts | 111° |
| 2026-04-27 14:27 | 37.01351 | 23.65726 | 37088 ft | 485 kts | 111° |
| 2026-04-27 14:27 | 36.98937 | 23.73633 | 37080 ft | 486 kts | 111° |
| 2026-04-27 14:28 | 36.96523 | 23.81527 | 37084 ft | 486 kts | 111° |
| 2026-04-27 14:28 | 36.94104 | 23.89422 | 37082 ft | 486 kts | 111° |
| 2026-04-27 14:29 | 36.91695 | 23.97265 | 37077 ft | 486 kts | 111° |
| 2026-04-27 14:29 | 36.89271 | 24.05145 | 37075 ft | 486 kts | 111° |
| 2026-04-27 14:30 | 36.86850 | 24.13017 | 37076 ft | 485 kts | 111° |
| 2026-04-27 14:30 | 36.84780 | 24.19735 | 37075 ft | 485 kts | 111° |
| 2026-04-27 14:31 | 36.82353 | 24.27591 | 37075 ft | 484 kts | 111° |
| 2026-04-27 14:31 | 36.79923 | 24.35431 | 37073 ft | 484 kts | 111° |
| 2026-04-27 14:32 | 36.77494 | 24.43253 | 37070 ft | 483 kts | 111° |
| 2026-04-27 14:32 | 36.75116 | 24.51085 | 37064 ft | 483 kts | 107° |
| 2026-04-27 14:33 | 36.73919 | 24.59283 | 37080 ft | 481 kts | 95° |
| 2026-04-27 14:33 | 36.73190 | 24.67517 | 37068 ft | 481 kts | 95° |
| 2026-04-27 14:34 | 36.72406 | 24.75800 | 37067 ft | 481 kts | 96° |
| 2026-04-27 14:34 | 36.71565 | 24.84089 | 37066 ft | 482 kts | 96° |
| 2026-04-27 14:35 | 36.70713 | 24.92374 | 37060 ft | 482 kts | 96° |
| 2026-04-27 14:35 | 36.69853 | 25.00672 | 37063 ft | 482 kts | 97° |
| 2026-04-27 14:36 | 36.68969 | 25.08946 | 37060 ft | 482 kts | 97° |
| 2026-04-27 14:36 | 36.68088 | 25.17172 | 37063 ft | 482 kts | 97° |
| 2026-04-27 14:37 | 36.67109 | 25.25458 | 37058 ft | 482 kts | 98° |
| 2026-04-27 14:37 | 36.66059 | 25.33705 | 37048 ft | 482 kts | 98° |
| 2026-04-27 14:38 | 36.65042 | 25.41964 | 37044 ft | 482 kts | 97° |
| 2026-04-27 14:38 | 36.64602 | 25.46123 | 36811 ft | 484 kts | 96° |
| 2026-04-27 14:38 | 36.64197 | 25.50269 | 36549 ft | 481 kts | 96° |
| 2026-04-27 14:38 | 36.63804 | 25.54359 | 36292 ft | 479 kts | 96° |
| 2026-04-27 14:39 | 36.63402 | 25.58476 | 36049 ft | 479 kts | 96° |
| 2026-04-27 14:39 | 36.62990 | 25.62604 | 35803 ft | 479 kts | 96° |
| 2026-04-27 14:39 | 36.62572 | 25.66721 | 35560 ft | 479 kts | 96° |
| 2026-04-27 14:39 | 36.62148 | 25.70841 | 35317 ft | 479 kts | 96° |
| 2026-04-27 14:40 | 36.61723 | 25.74951 | 35079 ft | 479 kts | 96° |
| 2026-04-27 14:40 | 36.61298 | 25.79061 | 34505 ft | 479 kts | 96° |
| 2026-04-27 14:40 | 36.60871 | 25.83181 | 33860 ft | 479 kts | 96° |
| 2026-04-27 14:40 | 36.60437 | 25.87275 | 33346 ft | 475 kts | 97° |
| 2026-04-27 14:41 | 36.59996 | 25.91355 | 32695 ft | 474 kts | 97° |
| 2026-04-27 14:41 | 36.59557 | 25.95392 | 32252 ft | 469 kts | 97° |
| 2026-04-27 14:41 | 36.59125 | 25.99345 | 31744 ft | 465 kts | 97° |
| 2026-04-27 14:41 | 36.58692 | 26.03318 | 31271 ft | 461 kts | 97° |
| 2026-04-27 14:42 | 36.58262 | 26.07255 | 30793 ft | 457 kts | 97° |
| 2026-04-27 14:42 | 36.57835 | 26.11157 | 30326 ft | 454 kts | 97° |
| 2026-04-27 14:42 | 36.57405 | 26.15082 | 29804 ft | 450 kts | 97° |
| 2026-04-27 14:42 | 36.56989 | 26.18870 | 29284 ft | 446 kts | 97° |
| 2026-04-27 14:43 | 36.56569 | 26.22671 | 28807 ft | 441 kts | 97° |
| 2026-04-27 14:43 | 36.56149 | 26.26416 | 28459 ft | 433 kts | 97° |
| 2026-04-27 14:43 | 36.55727 | 26.30098 | 28080 ft | 428 kts | 97° |
| 2026-04-27 14:43 | 36.55306 | 26.33748 | 27634 ft | 424 kts | 97° |
| 2026-04-27 14:44 | 36.54888 | 26.37366 | 27156 ft | 421 kts | 97° |
| 2026-04-27 14:44 | 36.54473 | 26.40960 | 26683 ft | 418 kts | 97° |
| 2026-04-27 14:44 | 36.54061 | 26.44533 | 26216 ft | 416 kts | 97° |
| 2026-04-27 14:44 | 36.53650 | 26.48085 | 25755 ft | 413 kts | 97° |
| 2026-04-27 14:45 | 36.53240 | 26.51611 | 25296 ft | 411 kts | 97° |
| 2026-04-27 14:45 | 36.52836 | 26.55121 | 24845 ft | 409 kts | 97° |
| 2026-04-27 14:45 | 36.52435 | 26.58622 | 24390 ft | 407 kts | 97° |
| 2026-04-27 14:45 | 36.52036 | 26.62102 | 23919 ft | 406 kts | 97° |
| 2026-04-27 14:46 | 36.51638 | 26.65574 | 23435 ft | 405 kts | 97° |
| 2026-04-27 14:46 | 36.51239 | 26.69035 | 22911 ft | 403 kts | 97° |
| 2026-04-27 14:46 | 36.50840 | 26.72484 | 22429 ft | 401 kts | 97° |
| 2026-04-27 14:46 | 36.50449 | 26.75859 | 21964 ft | 398 kts | 97° |
| 2026-04-27 14:47 | 36.50054 | 26.79252 | 21509 ft | 395 kts | 97° |
| 2026-04-27 14:47 | 36.49662 | 26.82622 | 21059 ft | 392 kts | 96° |
| 2026-04-27 14:47 | 36.49272 | 26.85962 | 20613 ft | 390 kts | 96° |
| 2026-04-27 14:47 | 36.48883 | 26.89285 | 20172 ft | 387 kts | 96° |
| 2026-04-27 14:48 | 36.48610 | 26.92554 | 20150 ft | 373 kts | 92° |
| 2026-04-27 14:48 | 36.48343 | 26.99007 | 19495 ft | 377 kts | 90° |
| 2026-04-27 14:48 | 36.48233 | 27.02279 | 18940 ft | 379 kts | 90° |
| 2026-04-27 14:49 | 36.48114 | 27.05560 | 18457 ft | 380 kts | 90° |
| 2026-04-27 14:49 | 36.47988 | 27.08788 | 18003 ft | 378 kts | 91° |
| 2026-04-27 14:49 | 36.47853 | 27.12033 | 17575 ft | 374 kts | 91° |
| 2026-04-27 14:49 | 36.47713 | 27.15254 | 17157 ft | 370 kts | 91° |
| 2026-04-27 14:50 | 36.47572 | 27.18441 | 16716 ft | 368 kts | 91° |
| 2026-04-27 14:50 | 36.47429 | 27.21602 | 16276 ft | 366 kts | 91° |
| 2026-04-27 14:50 | 36.47286 | 27.24743 | 15860 ft | 363 kts | 91° |
| 2026-04-27 14:50 | 36.47143 | 27.27864 | 15443 ft | 360 kts | 91° |
| 2026-04-27 14:51 | 36.47000 | 27.30963 | 15040 ft | 358 kts | 92° |
| 2026-04-27 14:51 | 36.46856 | 27.34045 | 14631 ft | 356 kts | 92° |
| 2026-04-27 14:51 | 36.46713 | 27.37107 | 14255 ft | 354 kts | 92° |
| 2026-04-27 14:51 | 36.46619 | 27.39124 | 13992 ft | 352 kts | 92° |
| 2026-04-27 14:52 | 36.46428 | 27.43178 | 13425 ft | 350 kts | 92° |
| 2026-04-27 14:52 | 36.46285 | 27.46188 | 13010 ft | 347 kts | 92° |
| 2026-04-27 14:52 | 36.46143 | 27.49170 | 12606 ft | 344 kts | 92° |
| 2026-04-27 14:52 | 36.46001 | 27.52130 | 12198 ft | 342 kts | 92° |
| 2026-04-27 14:53 | 36.45859 | 27.55072 | 11785 ft | 340 kts | 92° |
| 2026-04-27 14:53 | 36.45812 | 27.56059 | 11660 ft | 339 kts | 92° |
| 2026-04-27 14:53 | 36.45698 | 27.58403 | 11393 ft | 336 kts | 92° |
| 2026-04-27 14:53 | 36.45559 | 27.61252 | 11297 ft | 324 kts | 93° |
| 2026-04-27 14:54 | 36.45424 | 27.64000 | 11211 ft | 312 kts | 92° |
| 2026-04-27 14:54 | 36.45294 | 27.66650 | 11123 ft | 302 kts | 92° |
| 2026-04-27 14:54 | 36.45167 | 27.69212 | 11045 ft | 292 kts | 93° |
| 2026-04-27 14:54 | 36.45045 | 27.71667 | 10876 ft | 286 kts | 93° |
| 2026-04-27 14:55 | 36.44923 | 27.74124 | 10582 ft | 285 kts | 93° |
| 2026-04-27 14:55 | 36.44801 | 27.76577 | 10300 ft | 284 kts | 93° |
| 2026-04-27 14:55 | 36.44679 | 27.78996 | 9992 ft | 278 kts | 93° |
| 2026-04-27 14:55 | 36.44559 | 27.81392 | 9505 ft | 277 kts | 93° |
| 2026-04-27 14:56 | 36.44438 | 27.83778 | 9020 ft | 276 kts | 93° |
| 2026-04-27 14:56 | 36.44318 | 27.86151 | 8559 ft | 274 kts | 93° |
| 2026-04-27 14:56 | 36.44198 | 27.88508 | 8112 ft | 272 kts | 93° |
| 2026-04-27 14:56 | 36.44077 | 27.90849 | 7667 ft | 271 kts | 93° |
| 2026-04-27 14:57 | 36.43995 | 27.93177 | 7219 ft | 269 kts | 84° |
| 2026-04-27 14:57 | 36.44323 | 27.95454 | 6782 ft | 267 kts | 76° |
| 2026-04-27 14:57 | 36.44753 | 27.97658 | 6368 ft | 265 kts | 75° |
| 2026-04-27 14:57 | 36.45199 | 27.99874 | 5912 ft | 264 kts | 75° |
| 2026-04-27 14:58 | 36.45643 | 28.02080 | 5480 ft | 262 kts | 75° |
| 2026-04-27 14:58 | 36.46078 | 28.04275 | 5045 ft | 261 kts | 75° |
| 2026-04-27 14:58 | 36.46511 | 28.06480 | 4705 ft | 263 kts | 75° |
| 2026-04-27 14:58 | 36.46937 | 28.08672 | 4480 ft | 258 kts | 75° |
| 2026-04-27 14:59 | 36.47350 | 28.10840 | 4020 ft | 259 kts | 75° |
| 2026-04-27 14:59 | 36.47758 | 28.13036 | 3517 ft | 261 kts | 75° |
| 2026-04-27 14:59 | 36.48154 | 28.15232 | 3136 ft | 262 kts | 75° |
| 2026-04-27 14:59 | 36.48547 | 28.17438 | 2901 ft | 260 kts | 75° |
| 2026-04-27 15:00 | 36.48935 | 28.19619 | 2723 ft | 255 kts | 75° |
| 2026-04-27 15:00 | 36.49310 | 28.21737 | 2656 ft | 246 kts | 75° |
| 2026-04-27 15:00 | 36.49671 | 28.23778 | 2568 ft | 238 kts | 75° |
| 2026-04-27 15:00 | 36.49762 | 28.25798 | 2409 ft | 237 kts | 104° |
| 2026-04-27 15:01 | 36.48877 | 28.27478 | 2180 ft | 235 kts | 146° |
| 2026-04-27 15:01 | 36.47362 | 28.28065 | 2053 ft | 231 kts | 187° |
| 2026-04-27 15:01 | 36.45898 | 28.27443 | 2031 ft | 216 kts | 221° |
| 2026-04-27 15:01 | 36.45153 | 28.26030 | 1978 ft | 189 kts | 265° |
| 2026-04-27 15:02 | 36.45007 | 28.24452 | 1998 ft | 187 kts | 259° |
| 2026-04-27 15:02 | 36.44658 | 28.22905 | 2001 ft | 185 kts | 257° |
| 2026-04-27 15:02 | 36.44260 | 28.21354 | 1829 ft | 193 kts | 252° |
| 2026-04-27 15:02 | 36.43807 | 28.19799 | 1605 ft | 189 kts | 252° |
| 2026-04-27 15:03 | 36.43361 | 28.18284 | 1362 ft | 184 kts | 253° |
| 2026-04-27 15:03 | 36.42935 | 28.16828 | 1109 ft | 173 kts | 252° |
| 2026-04-27 15:03 | 36.42540 | 28.15477 | 907 ft | 160 kts | 251° |
| 2026-04-27 15:03 | 36.42182 | 28.14240 | 724 ft | 144 kts | 251° |
| 2026-04-27 15:04 | 36.41849 | 28.13109 | 517 ft | 134 kts | 249° |
| 2026-04-27 15:04 | 36.41535 | 28.12037 | 365 ft | 132 kts | 249° |
| 2026-04-27 15:04 | 36.41215 | 28.10939 | 174 ft | 140 kts | 250° |
| 2026-04-27 15:04 | 36.40882 | 28.09799 | 29 ft | 136 kts | 250° |
| 2026-04-27 15:05 | 36.40618 | 28.08894 | 28 ft | 81 kts | 250° |
| 2026-04-27 15:05 | 36.40443 | 28.08293 | 27 ft | 66 kts | 250° |
| 2026-04-27 15:05 | 36.40304 | 28.07986 | 28 ft | 31 kts | 223° |
| 2026-04-27 15:05 | 36.40157 | 28.07874 | 27 ft | 18 kts | 149° |
| 2026-04-27 15:06 | 36.40171 | 28.07991 | 27 ft | 15 kts | 70° |
| 2026-04-27 15:06 | 36.40219 | 28.08153 | 27 ft | 29 kts | 70° |
| 2026-04-27 15:06 | 36.40299 | 28.08426 | 27 ft | 34 kts | 70° |
| 2026-04-27 15:06 | 36.40380 | 28.08699 | 27 ft | 32 kts | 70° |
| 2026-04-27 15:07 | 36.40396 | 28.08934 | 27 ft | 23 kts | 91° |